Time;durP1;ratioP1;P1;durP2;ratioP2;P2;SDS_P1;SDS_P2;PMS_P1;PMS_P2;Temp;Humidity;BMP_temperature;BMP_pressure;BME280_temperature;BME280_humidity;BME280_pressure;Samples;Min_cycle;Max_cycle;Signal;HPM_P1;HPM_P2
2021/07/26 00:02:12;;;;;;;5.35;3.47;;;19.80;99.90;;;;;;6205966;28;20138;-79
2021/07/26 00:05:14;;;;;;;8.65;4.40;;;19.90;99.90;;;;;;6207136;28;20086;-80
2021/07/26 00:08:22;;;;;;;6.18;4.68;;;19.80;99.90;;;;;;6204678;28;20054;-80
2021/07/26 00:11:23;;;;;;;4.35;3.95;;;19.80;99.90;;;;;;6195344;28;20042;-78
2021/07/26 00:14:25;;;;;;;12.82;7.18;;;19.80;99.90;;;;;;6204931;28;20196;-79
2021/07/26 00:17:28;;;;;;;5.00;3.88;;;19.80;99.90;;;;;;6205653;28;20133;-79
2021/07/26 00:20:30;;;;;;;6.82;4.80;;;19.70;99.90;;;;;;6206179;28;20051;-79
2021/07/26 00:23:32;;;;;;;4.13;3.75;;;19.70;99.90;;;;;;6205556;28;20058;-78
2021/07/26 00:26:34;;;;;;;5.60;3.83;;;19.70;99.90;;;;;;6204142;28;20062;-78
2021/07/26 00:29:36;;;;;;;6.82;3.90;;;19.70;99.90;;;;;;6205696;28;20144;-79
2021/07/26 00:32:39;;;;;;;5.05;3.53;;;19.70;99.90;;;;;;6205421;28;20140;-79
2021/07/26 00:35:41;;;;;;;5.32;4.38;;;19.70;99.90;;;;;;6205150;28;20519;-79
2021/07/26 00:38:42;;;;;;;6.00;4.55;;;19.70;99.90;;;;;;6204282;28;20050;-78
2021/07/26 00:41:46;;;;;;;7.40;4.05;;;19.60;99.90;;;;;;6204295;28;20054;-79
2021/07/26 00:44:48;;;;;;;4.05;3.40;;;19.60;99.90;;;;;;6203960;28;20128;-79
2021/07/26 00:47:51;;;;;;;7.97;5.88;;;19.50;99.90;;;;;;6204681;28;20577;-80
2021/07/26 00:50:53;;;;;;;10.68;4.32;;;19.60;99.90;;;;;;6203811;28;20050;-78
2021/07/26 00:53:55;;;;;;;7.55;4.57;;;19.50;99.90;;;;;;6205059;28;20060;-79
2021/07/26 00:57:01;;;;;;;5.53;3.88;;;19.50;99.90;;;;;;6223165;28;20057;-79
2021/07/26 01:00:03;;;;;;;7.85;3.80;;;19.40;99.90;;;;;;6229907;28;20054;-79
2021/07/26 01:03:06;;;;;;;5.13;3.80;;;19.40;99.90;;;;;;6230216;28;20113;-79
2021/07/26 01:06:08;;;;;;;5.68;5.18;;;19.40;99.90;;;;;;6230554;28;20042;-79
2021/07/26 01:09:11;;;;;;;7.65;4.43;;;19.40;99.90;;;;;;6229869;28;20504;-79
2021/07/26 01:12:13;;;;;;;8.50;4.63;;;19.30;99.90;;;;;;6230828;28;20128;-79
2021/07/26 01:15:15;;;;;;;7.05;4.10;;;19.30;99.90;;;;;;6231616;28;20070;-79
2021/07/26 01:18:23;;;;;;;6.43;4.32;;;19.40;99.90;;;;;;6228738;28;20622;-79
2021/07/26 01:21:27;;;;;;;8.57;4.10;;;19.40;99.90;;;;;;6229349;28;20053;-79
2021/07/26 01:24:28;;;;;;;6.43;3.38;;;19.40;99.90;;;;;;6228565;28;20464;-79
2021/07/26 01:27:30;;;;;;;8.32;4.25;;;19.40;99.90;;;;;;6228185;28;20042;-79
2021/07/26 01:30:33;;;;;;;6.40;3.60;;;19.30;99.90;;;;;;6228172;28;20096;-79
2021/07/26 01:33:35;;;;;;;9.27;3.08;;;19.40;99.90;;;;;;6227680;28;20050;-79
2021/07/26 01:36:39;;;;;;;4.53;3.95;;;19.40;99.90;;;;;;6227586;28;20434;-79
2021/07/26 01:39:41;;;;;;;6.00;4.20;;;19.40;99.90;;;;;;6231595;28;20045;-80
2021/07/26 01:42:43;;;;;;;6.82;4.40;;;19.40;99.90;;;;;;6232328;28;20049;-79
2021/07/26 01:45:55;;;;;;;5.68;3.88;;;19.40;99.90;;;;;;6231354;28;20151;-79
2021/07/26 01:49:01;;;;;;;5.65;4.43;;;19.40;99.90;;;;;;6230679;28;20152;-80
2021/07/26 01:52:05;;;;;;;7.50;4.65;;;19.40;99.90;;;;;;6231195;28;20545;-80
2021/07/26 01:55:08;;;;;;;4.90;4.10;;;19.40;99.90;;;;;;6230891;28;20150;-78
2021/07/26 01:58:10;;;;;;;4.78;4.38;;;19.40;99.90;;;;;;6231760;28;20049;-79
2021/07/26 02:01:12;;;;;;;5.05;3.80;;;19.50;99.90;;;;;;6231291;28;20623;-79
2021/07/26 02:04:16;;;;;;;4.72;3.45;;;19.50;99.90;;;;;;6231420;28;20107;-78
2021/07/26 02:07:19;;;;;;;5.85;4.00;;;19.50;99.90;;;;;;6230684;28;20107;-79
2021/07/26 02:10:21;;;;;;;4.53;3.60;;;19.50;99.90;;;;;;6230960;28;20561;-80
2021/07/26 02:13:23;;;;;;;6.50;3.60;;;19.60;99.90;;;;;;6231658;28;20136;-80
2021/07/26 02:16:25;;;;;;;4.88;3.55;;;19.60;99.50;;;;;;6231239;28;20065;-80
2021/07/26 02:19:28;;;;;;;6.68;3.95;;;19.60;99.30;;;;;;6231301;28;20173;-80
2021/07/26 02:22:32;;;;;;;5.57;4.95;;;19.70;99.00;;;;;;6230268;28;20556;-80
2021/07/26 02:25:33;;;;;;;7.05;3.75;;;19.70;98.80;;;;;;6231343;28;20052;-79
2021/07/26 02:28:35;;;;;;;3.65;3.28;;;19.80;98.60;;;;;;6229863;28;20504;-80
2021/07/26 02:31:37;;;;;;;3.95;3.55;;;19.80;98.50;;;;;;6214972;23;1103563;-79
2021/07/26 02:34:39;;;;;;;5.32;4.40;;;19.80;98.20;;;;;;6230027;28;20132;-79
2021/07/26 02:37:42;;;;;;;4.72;4.20;;;19.80;98.10;;;;;;6229477;28;20510;-80
2021/07/26 02:40:44;;;;;;;7.07;4.25;;;19.80;98.00;;;;;;6229003;28;20076;-80
2021/07/26 02:43:46;;;;;;;8.77;4.47;;;19.70;97.90;;;;;;6228965;28;20104;-80
2021/07/26 02:46:48;;;;;;;5.03;3.22;;;19.70;98.00;;;;;;6228100;28;20634;-79
2021/07/26 02:49:49;;;;;;;5.18;3.85;;;19.70;98.20;;;;;;6227627;28;20136;-79
2021/07/26 02:52:53;;;;;;;4.13;3.72;;;19.60;98.40;;;;;;6229006;28;20128;-80
2021/07/26 02:55:55;;;;;;;4.18;3.75;;;19.60;98.50;;;;;;6228633;28;20137;-80
2021/07/26 02:58:56;;;;;;;4.13;3.72;;;19.50;98.70;;;;;;6229363;28;20184;-80
2021/07/26 03:01:58;;;;;;;10.60;3.47;;;19.50;99.00;;;;;;6229311;28;20077;-79
2021/07/26 03:05:00;;;;;;;4.80;4.07;;;19.40;99.00;;;;;;6229248;28;20093;-80
2021/07/26 03:08:04;;;;;;;4.68;3.70;;;19.40;99.20;;;;;;6227420;28;20081;-80
2021/07/26 03:11:10;;;;;;;4.57;3.90;;;19.30;99.50;;;;;;6227565;28;20120;-79
2021/07/26 03:14:12;;;;;;;7.05;4.25;;;19.30;99.60;;;;;;6229048;28;20411;-80
2021/07/26 03:17:13;;;;;;;6.43;3.75;;;19.20;99.70;;;;;;6229408;28;20506;-80
2021/07/26 03:20:15;;;;;;;5.82;4.30;;;19.20;99.90;;;;;;6229282;28;20530;-79
2021/07/26 03:23:18;;;;;;;7.38;3.78;;;19.10;99.90;;;;;;6229011;28;20173;-79
2021/07/26 03:26:20;;;;;;;6.03;4.18;;;19.10;99.90;;;;;;6228389;28;20084;-79
2021/07/26 03:29:22;;;;;;;5.70;3.38;;;19.00;99.90;;;;;;6228168;28;20411;-80
2021/07/26 03:32:24;;;;;;;10.20;4.90;;;18.90;99.90;;;;;;6226856;28;20092;-78
2021/07/26 03:35:26;;;;;;;7.60;5.20;;;18.80;99.90;;;;;;6227650;28;20411;-78
2021/07/26 03:38:29;;;;;;;4.72;4.22;;;18.80;99.90;;;;;;6228338;28;20108;-78
2021/07/26 03:41:31;;;;;;;5.85;4.45;;;18.70;99.90;;;;;;6229274;28;20069;-79
2021/07/26 03:44:33;;;;;;;5.72;4.55;;;18.70;99.90;;;;;;6228159;28;20073;-78
2021/07/26 03:47:35;;;;;;;7.07;4.55;;;18.60;99.90;;;;;;6227634;28;20056;-78
2021/07/26 03:50:37;;;;;;;6.20;3.88;;;18.60;99.90;;;;;;6228043;28;20414;-78
2021/07/26 03:53:40;;;;;;;4.65;4.05;;;18.50;99.90;;;;;;6227611;28;20531;-78
2021/07/26 03:56:42;;;;;;;5.55;3.63;;;18.50;99.90;;;;;;6227546;28;20038;-78
2021/07/26 03:59:43;;;;;;;4.70;4.30;;;18.40;99.90;;;;;;6228391;28;20124;-78
2021/07/26 04:02:50;;;;;;;3.90;3.60;;;18.30;99.90;;;;;;6224858;28;20180;-78
2021/07/26 04:05:58;;;;;;;5.28;4.78;;;18.30;99.90;;;;;;6227168;28;20050;-78
2021/07/26 04:09:01;;;;;;;7.43;3.63;;;18.30;99.90;;;;;;6227651;28;20049;-78
2021/07/26 04:12:06;;;;;;;5.28;4.70;;;18.30;99.90;;;;;;6227053;28;20050;-78
2021/07/26 04:15:10;;;;;;;7.35;4.68;;;18.40;99.90;;;;;;6226868;28;20042;-78
2021/07/26 04:18:12;;;;;;;7.43;4.38;;;18.40;99.90;;;;;;6226973;28;20071;-78
2021/07/26 04:21:14;;;;;;;7.15;5.05;;;18.50;99.90;;;;;;6227843;28;20097;-79
2021/07/26 04:24:17;;;;;;;13.00;6.25;;;18.50;99.90;;;;;;6227832;28;20181;-78
2021/07/26 04:27:19;;;;;;;6.63;5.85;;;18.50;99.90;;;;;;6227424;28;20050;-78
2021/07/26 04:30:21;;;;;;;5.50;5.00;;;18.50;99.90;;;;;;6227596;28;20054;-78
2021/07/26 04:33:22;;;;;;;7.47;4.65;;;18.50;99.90;;;;;;6228722;28;20128;-78
2021/07/26 04:36:24;;;;;;;8.50;5.40;;;18.60;99.90;;;;;;6226770;28;20458;-78
2021/07/26 04:39:27;;;;;;;6.80;4.63;;;18.60;99.90;;;;;;6226351;28;20148;-78
2021/07/26 04:42:29;;;;;;;11.93;5.65;;;18.70;99.90;;;;;;6224542;28;20136;-79
2021/07/26 04:45:31;;;;;;;8.93;6.13;;;18.80;99.90;;;;;;6225440;28;20089;-77
2021/07/26 04:48:33;;;;;;;7.05;5.50;;;18.80;99.90;;;;;;6224737;28;20052;-78
2021/07/26 04:51:35;;;;;;;7.00;5.90;;;18.90;99.90;;;;;;6224660;28;20064;-78
2021/07/26 04:54:38;;;;;;;6.13;5.53;;;19.00;99.90;;;;;;6224570;28;20056;-78
2021/07/26 04:57:40;;;;;;;7.55;6.78;;;19.10;99.90;;;;;;6226710;28;20105;-78
2021/07/26 05:00:42;;;;;;;6.88;5.28;;;19.20;99.90;;;;;;6224566;28;20107;-78
2021/07/26 05:03:43;;;;;;;5.90;5.28;;;19.30;99.90;;;;;;6225283;28;20046;-78
2021/07/26 05:06:46;;;;;;;10.02;5.30;;;19.40;99.90;;;;;;6224124;28;20578;-78
2021/07/26 05:09:49;;;;;;;5.47;4.25;;;19.40;99.90;;;;;;6225850;28;20054;-78
2021/07/26 05:12:51;;;;;;;4.40;3.97;;;19.50;99.90;;;;;;6227675;28;20093;-78
2021/07/26 05:15:53;;;;;;;6.63;4.65;;;19.60;99.90;;;;;;6230908;28;20037;-78
2021/07/26 05:18:55;;;;;;;8.35;4.70;;;19.70;99.90;;;;;;6230861;28;20096;-78
2021/07/26 05:21:56;;;;;;;4.53;4.05;;;19.90;99.90;;;;;;6231267;28;20077;-78
2021/07/26 05:25:00;;;;;;;5.05;4.55;;;20.00;99.70;;;;;;6230363;28;20100;-78
2021/07/26 05:28:01;;;;;;;5.30;4.68;;;20.00;99.30;;;;;;6230808;28;20050;-78
2021/07/26 05:31:03;;;;;;;5.38;4.88;;;20.00;99.50;;;;;;6230233;28;20129;-78
2021/07/26 05:34:05;;;;;;;6.00;5.40;;;20.10;99.40;;;;;;6232433;28;20050;-78
2021/07/26 05:37:07;;;;;;;6.97;5.20;;;20.10;99.20;;;;;;6231605;28;20088;-78
2021/07/26 05:40:12;;;;;;;6.00;3.78;;;20.10;99.10;;;;;;6230422;28;20164;-78
2021/07/26 05:43:14;;;;;;;4.28;3.88;;;20.10;99.30;;;;;;6230790;28;20049;-78
2021/07/26 05:46:16;;;;;;;5.85;4.82;;;20.20;99.20;;;;;;6230516;28;20050;-78
2021/07/26 05:49:18;;;;;;;5.35;4.68;;;20.30;99.10;;;;;;6231258;28;20100;-78
2021/07/26 05:52:19;;;;;;;6.45;4.30;;;20.30;98.90;;;;;;6232476;28;20140;-78
2021/07/26 05:55:23;;;;;;;5.53;4.95;;;20.50;98.40;;;;;;6231906;28;20077;-78
2021/07/26 05:58:25;;;;;;;7.10;5.55;;;20.70;97.40;;;;;;6234428;28;20459;-78
2021/07/26 06:01:46;;;;;;;8.10;4.97;;;20.80;96.30;;;;;;6232311;28;20053;-78
2021/07/26 06:04:48;;;;;;;10.75;5.05;;;21.00;95.20;;;;;;6221016;28;20050;-78
2021/07/26 06:07:50;;;;;;;6.82;4.10;;;21.30;94.60;;;;;;6229517;28;20056;-78
2021/07/26 06:10:53;;;;;;;6.35;3.63;;;21.40;93.90;;;;;;6229422;28;20119;-78
2021/07/26 06:13:55;;;;;;;8.98;6.55;;;21.50;93.10;;;;;;6229505;28;20139;-78
2021/07/26 06:16:59;;;;;;;5.90;3.83;;;21.60;92.20;;;;;;6228683;28;20196;-78
2021/07/26 06:20:01;;;;;;;7.32;4.15;;;22.00;91.00;;;;;;6228852;28;20181;-78
2021/07/26 06:23:02;;;;;;;3.40;2.90;;;22.40;89.10;;;;;;6228340;28;20062;-78
2021/07/26 06:26:07;;;;;;;5.07;3.60;;;22.70;86.70;;;;;;6228792;28;20064;-79
2021/07/26 06:29:09;;;;;;;7.97;3.50;;;23.10;83.90;;;;;;6227482;28;20108;-78
2021/07/26 06:32:11;;;;;;;3.97;3.38;;;23.50;80.70;;;;;;6228803;28;20119;-78
2021/07/26 06:35:13;;;;;;;6.10;3.45;;;23.70;79.30;;;;;;6229022;28;20520;-78
2021/07/26 06:38:15;;;;;;;6.20;3.85;;;23.70;78.00;;;;;;6228165;28;20135;-78
2021/07/26 06:41:18;;;;;;;6.45;3.30;;;23.80;77.50;;;;;;6229225;28;20057;-78
2021/07/26 06:44:20;;;;;;;4.75;3.53;;;23.60;77.70;;;;;;6229058;28;20088;-78
2021/07/26 06:47:22;;;;;;;5.72;4.00;;;23.60;77.90;;;;;;6227391;28;20050;-78
2021/07/26 06:50:24;;;;;;;3.92;3.55;;;23.60;78.20;;;;;;6227877;28;20140;-78
2021/07/26 06:53:25;;;;;;;5.72;3.08;;;23.80;77.70;;;;;;6227774;28;20140;-78
2021/07/26 06:56:29;;;;;;;7.72;2.72;;;24.00;77.00;;;;;;6227003;28;20101;-78
2021/07/26 06:59:30;;;;;;;7.47;3.28;;;24.10;76.50;;;;;;6227775;28;20072;-78
2021/07/26 07:02:32;;;;;;;5.55;3.63;;;24.30;75.80;;;;;;6227166;28;20133;-78
2021/07/26 07:05:34;;;;;;;7.10;3.90;;;24.40;75.10;;;;;;6228349;28;20068;-78
2021/07/26 07:08:36;;;;;;;3.28;2.85;;;24.60;74.30;;;;;;6227750;28;20200;-78
2021/07/26 07:11:39;;;;;;;3.25;2.85;;;24.70;73.90;;;;;;6227290;28;20133;-78
2021/07/26 07:14:41;;;;;;;3.28;2.97;;;24.90;72.60;;;;;;6226810;28;20103;-78
2021/07/26 07:17:43;;;;;;;5.28;2.97;;;25.10;72.90;;;;;;6227935;28;20264;-78
2021/07/26 07:20:45;;;;;;;5.18;3.30;;;25.40;71.60;;;;;;6227401;28;20097;-78
2021/07/26 07:23:47;;;;;;;6.80;3.55;;;25.70;70.20;;;;;;6227070;28;20081;-78
2021/07/26 07:26:51;;;;;;;3.97;3.22;;;25.70;69.40;;;;;;6226662;28;20179;-78
2021/07/26 07:29:55;;;;;;;9.13;3.03;;;25.80;69.20;;;;;;6227058;28;20147;-79
2021/07/26 07:32:59;;;;;;;3.70;3.38;;;26.00;68.20;;;;;;6227785;28;20542;-79
2021/07/26 07:36:03;;;;;;;5.25;3.35;;;26.10;66.80;;;;;;6224526;28;20422;-79
2021/07/26 07:39:04;;;;;;;4.00;3.03;;;26.10;67.20;;;;;;6228642;28;20132;-79
2021/07/26 07:42:08;;;;;;;6.85;4.28;;;26.30;66.40;;;;;;6225905;28;20184;-79
2021/07/26 07:45:11;;;;;;;4.32;2.63;;;26.50;65.50;;;;;;6227995;28;20071;-80
2021/07/26 07:48:13;;;;;;;4.75;3.40;;;26.70;65.50;;;;;;6224762;28;20132;-79
2021/07/26 07:51:17;;;;;;;6.30;3.30;;;27.20;64.70;;;;;;6227279;28;20054;-80
2021/07/26 07:54:18;;;;;;;3.78;2.80;;;27.50;61.70;;;;;;6228283;28;20076;-79
2021/07/26 07:57:22;;;;;;;3.08;2.78;;;27.90;60.80;;;;;;6227199;28;20042;-80
2021/07/26 08:00:26;;;;;;;4.97;2.55;;;28.10;59.20;;;;;;6227537;28;20089;-81
2021/07/26 08:03:27;;;;;;;3.58;2.72;;;28.00;59.10;;;;;;6227601;28;20049;-81
2021/07/26 08:06:29;;;;;;;3.55;2.75;;;28.10;58.90;;;;;;6227554;28;20065;-81
2021/07/26 08:09:31;;;;;;;4.53;3.08;;;28.30;59.00;;;;;;6229888;28;20070;-80
2021/07/26 08:12:35;;;;;;;2.78;2.22;;;28.30;56.00;;;;;;6230566;28;20049;-81
2021/07/26 08:15:36;;;;;;;4.80;3.40;;;28.40;56.50;;;;;;6229125;28;20104;-81
2021/07/26 08:18:38;;;;;;;3.80;3.20;;;28.60;55.10;;;;;;6228358;28;20576;-81
2021/07/26 08:21:40;;;;;;;3.95;2.78;;;28.50;55.70;;;;;;6227669;28;20050;-84
2021/07/26 08:24:42;;;;;;;4.45;2.63;;;28.60;56.00;;;;;;6227916;28;20565;-81
2021/07/26 08:27:49;;;;;;;3.85;2.38;;;28.80;55.30;;;;;;6228325;28;20192;-81
2021/07/26 08:30:51;;;;;;;3.38;3.03;;;28.80;55.20;;;;;;6229625;28;20145;-81
2021/07/26 08:33:55;;;;;;;5.50;3.20;;;28.70;55.40;;;;;;6289040;23;20073;-78
2021/07/26 08:36:58;;;;;;;5.30;2.55;;;28.80;55.60;;;;;;6219745;28;20495;-77
2021/07/26 08:40:02;;;;;;;3.03;2.63;;;28.90;55.20;;;;;;6220525;28;20554;-78
2021/07/26 08:43:08;;;;;;;5.07;2.95;;;29.20;55.10;;;;;;6222328;28;20423;-78
2021/07/26 08:46:09;;;;;;;3.63;3.00;;;29.50;54.00;;;;;;6221823;28;20137;-77
2021/07/26 08:49:13;;;;;;;6.20;2.40;;;29.60;53.50;;;;;;6221729;28;20121;-77
2021/07/26 08:52:19;;;;;;;3.70;3.05;;;29.90;52.60;;;;;;6222783;28;20053;-79
2021/07/26 08:55:21;;;;;;;5.97;2.92;;;30.10;53.40;;;;;;6222162;28;20454;-77
2021/07/26 08:58:26;;;;;;;3.15;2.85;;;30.30;52.90;;;;;;6220917;28;20046;-77
2021/07/26 09:01:28;;;;;;;4.18;2.47;;;30.60;52.60;;;;;;6221878;28;20050;-77
2021/07/26 09:04:30;;;;;;;4.75;2.45;;;30.70;51.70;;;;;;6221302;28;20164;-77
2021/07/26 09:07:32;;;;;;;7.30;4.07;;;30.60;51.90;;;;;;6221569;28;20132;-77
2021/07/26 09:10:35;;;;;;;3.63;2.90;;;30.70;51.70;;;;;;6221583;28;20132;-77
2021/07/26 09:13:44;;;;;;;2.58;2.38;;;30.70;51.40;;;;;;6221261;28;20050;-76
2021/07/26 09:16:56;;;;;;;4.00;2.20;;;30.90;50.00;;;;;;6220972;28;20053;-76
2021/07/26 09:19:59;;;;;;;3.60;2.65;;;30.90;49.70;;;;;;6221884;28;20062;-77
2021/07/26 09:23:11;;;;;;;4.63;2.95;;;30.80;50.00;;;;;;6221549;28;20072;-77
2021/07/26 09:26:26;;;;;;;7.55;3.97;;;30.70;50.50;;;;;;6221933;28;20050;-77
2021/07/26 09:29:30;;;;;;;3.58;2.35;;;30.70;50.60;;;;;;6221980;28;20603;-76
2021/07/26 09:32:38;;;;;;;7.20;3.00;;;30.30;50.70;;;;;;6221285;28;20046;-76
2021/07/26 09:35:39;;;;;;;5.50;2.90;;;30.20;51.80;;;;;;6221084;28;20064;-76
2021/07/26 09:38:43;;;;;;;4.75;3.08;;;30.10;51.40;;;;;;6221549;28;20042;-76
2021/07/26 09:41:47;;;;;;;3.10;2.80;;;30.30;51.00;;;;;;6221754;28;20056;-76
2021/07/26 09:44:51;;;;;;;3.95;2.80;;;30.30;49.90;;;;;;6221502;28;20057;-77
2021/07/26 09:48:05;;;;;;;3.20;2.63;;;30.20;51.10;;;;;;6220881;28;20046;-76
2021/07/26 09:51:17;;;;;;;3.58;2.38;;;30.50;50.50;;;;;;6221659;28;20053;-76
2021/07/26 09:54:19;;;;;;;7.43;3.38;;;30.70;50.00;;;;;;6221124;28;20515;-77
2021/07/26 09:57:22;;;;;;;4.25;2.83;;;31.10;49.00;;;;;;6221670;28;20104;-77
2021/07/26 10:00:26;;;;;;;3.63;2.42;;;31.50;47.80;;;;;;6225766;28;20045;-77
2021/07/26 10:03:28;;;;;;;3.75;2.53;;;32.00;46.60;;;;;;6225051;28;20611;-77
2021/07/26 10:06:30;;;;;;;4.03;3.10;;;32.20;46.60;;;;;;6225446;28;20099;-76
2021/07/26 10:09:32;;;;;;;3.45;2.33;;;32.50;47.10;;;;;;6225763;28;20144;-77
2021/07/26 10:12:33;;;;;;;2.55;2.05;;;32.60;45.30;;;;;;6225647;28;20045;-77
2021/07/26 10:15:38;;;;;;;3.35;2.30;;;32.70;45.40;;;;;;6225160;28;20094;-76
2021/07/26 10:18:43;;;;;;;4.45;2.75;;;32.80;45.20;;;;;;6225190;28;20085;-76
2021/07/26 10:21:45;;;;;;;3.20;2.33;;;32.90;45.80;;;;;;6225821;28;20054;-76
2021/07/26 10:24:50;;;;;;;5.10;3.33;;;33.10;46.30;;;;;;6225248;28;20173;-76
2021/07/26 10:27:57;;;;;;;3.28;2.35;;;33.10;45.80;;;;;;6224797;28;20092;-76
2021/07/26 10:31:01;;;;;;;2.33;2.03;;;33.10;46.60;;;;;;6225158;28;20463;-77
2021/07/26 10:34:04;;;;;;;4.68;3.15;;;33.20;45.20;;;;;;6225004;28;20184;-76
2021/07/26 10:37:05;;;;;;;2.75;2.22;;;33.20;45.40;;;;;;6224756;28;20049;-76
2021/07/26 10:40:24;;;;;;;6.88;4.63;;;33.40;45.40;;;;;;6224937;28;20077;-76
2021/07/26 10:43:58;;;;;;;3.65;2.20;;;33.20;45.80;;;;;;6225019;28;20576;-77
2021/07/26 10:47:18;;;;;;;4.35;3.15;;;32.70;45.90;;;;;;6224412;28;20399;-77
2021/07/26 10:50:20;;;;;;;4.22;3.25;;;32.10;46.40;;;;;;6224951;28;20104;-77
2021/07/26 10:53:55;;;;;;;3.38;2.63;;;31.60;48.40;;;;;;6224939;28;20085;-76
2021/07/26 10:57:08;;;;;;;5.38;3.10;;;31.40;47.80;;;;;;6224321;28;20069;-76
2021/07/26 11:00:19;;;;;;;3.25;2.53;;;31.50;48.40;;;;;;6224665;28;20081;-76
2021/07/26 11:03:46;;;;;;;3.97;2.50;;;31.60;47.50;;;;;;6224138;28;20049;-77
2021/07/26 11:07:04;;;;;;;6.00;2.67;;;31.60;47.80;;;;;;6224168;28;20084;-76
2021/07/26 11:10:06;;;;;;;3.28;2.75;;;31.70;47.00;;;;;;6223537;28;20056;-76
2021/07/26 11:13:08;;;;;;;4.55;2.60;;;31.90;46.40;;;;;;6223792;28;20128;-76
2021/07/26 11:16:10;;;;;;;5.30;2.28;;;32.00;45.80;;;;;;6223701;28;20180;-77
2021/07/26 11:19:31;;;;;;;4.15;2.63;;;32.00;46.40;;;;;;6224198;28;20128;-76
2021/07/26 11:22:58;;;;;;;3.47;2.72;;;32.20;45.70;;;;;;6223723;28;20060;-77
2021/07/26 11:26:00;;;;;;;4.15;1.85;;;32.30;45.70;;;;;;6223457;28;20054;-76
2021/07/26 11:29:04;;;;;;;2.45;2.20;;;32.30;45.60;;;;;;6223821;28;20188;-77
2021/07/26 11:32:06;;;;;;;3.22;2.72;;;32.40;45.80;;;;;;6224001;28;20045;-77
2021/07/26 11:35:10;;;;;;;2.90;2.40;;;32.40;45.30;;;;;;6223906;28;20046;-77
2021/07/26 11:38:12;;;;;;;5.45;2.80;;;32.50;45.90;;;;;;6224053;28;20046;-77
2021/07/26 11:41:17;;;;;;;5.10;2.38;;;32.50;44.60;;;;;;6224046;28;20173;-77
2021/07/26 11:44:26;;;;;;;3.83;2.95;;;32.70;45.60;;;;;;6223481;28;20057;-77
2021/07/26 11:47:33;;;;;;;4.60;3.05;;;32.80;45.10;;;;;;6222906;28;20038;-77
2021/07/26 11:50:38;;;;;;;2.97;2.50;;;32.70;44.60;;;;;;6223593;28;20085;-77
2021/07/26 11:53:40;;;;;;;3.88;2.90;;;32.40;44.30;;;;;;6223597;28;20053;-77
2021/07/26 11:56:42;;;;;;;5.63;2.88;;;32.30;45.10;;;;;;6223119;28;20108;-77
2021/07/26 11:59:49;;;;;;;4.93;3.15;;;32.50;45.40;;;;;;6223123;28;20068;-77
2021/07/26 12:02:51;;;;;;;3.25;2.65;;;32.60;45.20;;;;;;6223245;28;20076;-77
2021/07/26 12:06:03;;;;;;;4.35;2.92;;;32.70;45.60;;;;;;6222929;28;20906;-77
2021/07/26 12:09:05;;;;;;;5.68;3.08;;;32.40;45.30;;;;;;6223017;28;20045;-77
2021/07/26 12:12:09;;;;;;;7.47;3.33;;;32.10;45.70;;;;;;6223661;28;20085;-76
2021/07/26 12:15:26;;;;;;;6.35;2.00;;;31.80;46.40;;;;;;6222992;28;20128;-76
2021/07/26 12:18:32;;;;;;;12.77;3.13;;;31.30;46.60;;;;;;6222594;28;20057;-76
2021/07/26 12:21:36;;;;;;;4.35;3.25;;;31.00;48.10;;;;;;6223192;28;20060;-77
2021/07/26 12:24:49;;;;;;;11.32;3.83;;;30.30;54.90;;;;;;6222615;28;20057;-76
2021/07/26 12:27:56;;;;;;;5.88;3.88;;;29.30;57.40;;;;;;6222561;28;20410;-78
2021/07/26 12:30:58;;;;;;;6.60;3.67;;;28.10;63.30;;;;;;6224677;28;20068;-76
2021/07/26 12:34:10;;;;;;;8.30;4.85;;;26.80;66.90;;;;;;6226363;28;20140;-77
2021/07/26 12:37:20;;;;;;;6.70;3.80;;;26.00;69.80;;;;;;6224247;28;20057;-77
2021/07/26 12:40:27;;;;;;;6.00;3.97;;;25.50;71.70;;;;;;6225634;28;20129;-77
2021/07/26 12:43:28;;;;;;;7.50;4.67;;;25.10;73.20;;;;;;6234653;23;20456;-77
2021/07/26 12:46:33;;;;;;;5.00;3.65;;;24.90;73.80;;;;;;6250336;28;20103;-78
2021/07/26 12:49:35;;;;;;;7.68;3.90;;;24.70;75.80;;;;;;6250172;28;20054;-77
2021/07/26 12:52:38;;;;;;;15.30;4.63;;;24.50;77.10;;;;;;6249131;28;20527;-77
2021/07/26 12:55:41;;;;;;;4.80;3.92;;;24.30;78.40;;;;;;6251638;28;20057;-77
2021/07/26 12:58:43;;;;;;;5.93;4.95;;;24.30;78.80;;;;;;6250937;28;20512;-78
2021/07/26 13:01:50;;;;;;;6.38;4.10;;;24.20;79.30;;;;;;6250779;28;20124;-78
2021/07/26 13:04:51;;;;;;;4.90;3.93;;;24.50;81.60;;;;;;6249926;28;20060;-76
2021/07/26 13:07:55;;;;;;;7.88;3.53;;;24.90;81.80;;;;;;6251049;28;20334;-78
2021/07/26 13:10:57;;;;;;;5.18;3.60;;;25.40;80.40;;;;;;6251682;28;20439;-80
2021/07/26 13:13:58;;;;;;;4.88;2.60;;;25.90;78.60;;;;;;6250468;28;20131;-77
2021/07/26 13:17:00;;;;;;;4.35;2.65;;;26.30;74.70;;;;;;6249582;28;20124;-78
2021/07/26 13:20:02;;;;;;;2.92;2.35;;;26.70;69.90;;;;;;6250969;28;20049;-77
2021/07/26 13:23:05;;;;;;;4.47;2.35;;;27.00;67.40;;;;;;6251043;28;20407;-79
2021/07/26 13:26:07;;;;;;;3.47;2.53;;;27.50;66.00;;;;;;6250799;28;20457;-79
2021/07/26 13:29:09;;;;;;;3.38;2.30;;;27.80;61.80;;;;;;6250220;28;20567;-79
2021/07/26 13:32:11;;;;;;;3.58;2.10;;;28.30;61.60;;;;;;6250715;28;20049;-77
2021/07/26 13:35:13;;;;;;;4.68;2.20;;;28.60;59.80;;;;;;6255487;28;20065;-79
2021/07/26 13:38:17;;;;;;;2.58;1.95;;;28.90;57.70;;;;;;6255581;28;20464;-80
2021/07/26 13:41:18;;;;;;;3.80;1.58;;;29.20;54.80;;;;;;6255339;28;20081;-79
2021/07/26 13:44:20;;;;;;;3.58;2.30;;;29.30;54.40;;;;;;6254586;28;20061;-78
2021/07/26 13:47:22;;;;;;;4.47;2.00;;;29.30;53.40;;;;;;6255254;28;20518;-79
2021/07/26 13:50:24;;;;;;;5.63;1.90;;;29.30;52.50;;;;;;6254305;28;20496;-79
2021/07/26 13:53:27;;;;;;;2.40;2.15;;;29.30;56.00;;;;;;6255518;28;20132;-80
2021/07/26 13:56:29;;;;;;;2.30;2.03;;;29.40;54.10;;;;;;6254140;28;20530;-80
2021/07/26 13:59:31;;;;;;;2.65;2.30;;;29.40;53.70;;;;;;6255625;28;20519;-80
2021/07/26 14:02:33;;;;;;;5.00;2.22;;;29.60;52.80;;;;;;6255414;28;20049;-80
2021/07/26 14:05:34;;;;;;;2.60;2.08;;;29.80;52.10;;;;;;6255184;28;20147;-80
2021/07/26 14:08:38;;;;;;;2.00;1.60;;;29.90;52.10;;;;;;6254761;28;20044;-80
2021/07/26 14:11:40;;;;;;;2.63;2.00;;;30.10;51.30;;;;;;6255111;28;20045;-80
2021/07/26 14:14:42;;;;;;;3.45;1.80;;;30.10;51.70;;;;;;6254870;28;20104;-80
2021/07/26 14:17:44;;;;;;;2.30;1.42;;;30.10;49.50;;;;;;6255329;28;20143;-79
2021/07/26 14:20:45;;;;;;;3.08;2.55;;;29.90;48.70;;;;;;6254648;28;20123;-80
2021/07/26 14:23:48;;;;;;;10.88;2.03;;;29.70;50.00;;;;;;6254961;28;20076;-80
2021/07/26 14:26:50;;;;;;;2.30;2.10;;;29.40;51.30;;;;;;6255022;28;20542;-81
2021/07/26 14:29:55;;;;;;;2.50;2.22;;;29.20;52.00;;;;;;6255032;28;20133;-80
2021/07/26 14:32:57;;;;;;;4.65;2.42;;;29.00;52.60;;;;;;6254550;28;20045;-79
2021/07/26 14:35:59;;;;;;;2.97;1.88;;;28.80;53.60;;;;;;6253524;22;20466;-77
2021/07/26 14:39:03;;;;;;;4.18;2.22;;;28.60;54.80;;;;;;6226240;28;20046;-77
2021/07/26 14:42:05;;;;;;;3.45;2.65;;;28.50;55.20;;;;;;6227099;28;20491;-76
2021/07/26 14:45:08;;;;;;;2.63;1.90;;;28.20;55.10;;;;;;6225477;28;20269;-77
2021/07/26 14:48:10;;;;;;;2.63;2.38;;;28.10;55.90;;;;;;6225894;28;20064;-78
2021/07/26 14:51:13;;;;;;;7.68;2.55;;;27.90;57.30;;;;;;6227013;28;20178;-76
2021/07/26 14:54:16;;;;;;;5.07;3.10;;;27.70;58.70;;;;;;6227089;28;20093;-76
2021/07/26 14:57:18;;;;;;;3.85;2.67;;;27.60;59.10;;;;;;6228092;28;20135;-77
2021/07/26 15:00:20;;;;;;;4.13;2.35;;;27.40;60.40;;;;;;6227797;28;20168;-77
2021/07/26 15:03:23;;;;;;;3.95;3.40;;;27.20;62.20;;;;;;6223152;28;20574;-77
2021/07/26 15:06:25;;;;;;;2.67;2.25;;;27.20;61.70;;;;;;6221758;28;20056;-78
2021/07/26 15:09:28;;;;;;;2.70;2.20;;;27.30;61.40;;;;;;6225628;28;20125;-77
2021/07/26 15:12:31;;;;;;;3.17;2.55;;;27.60;60.40;;;;;;6225165;28;20074;-77
2021/07/26 15:15:34;;;;;;;4.10;2.50;;;27.90;58.90;;;;;;6225117;28;20081;-77
2021/07/26 15:18:36;;;;;;;2.55;2.15;;;28.20;55.90;;;;;;6224509;28;20528;-77
2021/07/26 15:21:37;;;;;;;3.92;2.25;;;28.60;53.90;;;;;;6225304;28;20127;-78
2021/07/26 15:24:42;;;;;;;3.60;2.60;;;28.90;53.60;;;;;;6224088;28;20128;-78
2021/07/26 15:27:44;;;;;;;3.20;2.90;;;29.20;53.10;;;;;;6225309;28;20085;-78
2021/07/26 15:30:46;;;;;;;2.15;1.98;;;29.40;51.90;;;;;;6225067;28;20049;-78
2021/07/26 15:33:49;;;;;;;4.25;2.63;;;29.40;51.10;;;;;;6226000;28;20169;-77
2021/07/26 15:36:51;;;;;;;3.90;2.33;;;29.40;52.40;;;;;;6224502;28;20507;-77
2021/07/26 15:39:55;;;;;;;3.75;3.03;;;29.40;52.60;;;;;;6225352;28;20081;-78
2021/07/26 15:42:57;;;;;;;5.47;2.20;;;29.40;52.80;;;;;;6224839;28;20088;-77
2021/07/26 15:45:59;;;;;;;3.33;2.22;;;29.30;52.50;;;;;;6226649;28;20057;-77
2021/07/26 15:49:01;;;;;;;5.25;2.30;;;29.10;52.20;;;;;;6225032;28;20046;-77
2021/07/26 15:52:03;;;;;;;5.57;3.00;;;28.80;52.80;;;;;;6225283;28;20042;-77
2021/07/26 15:55:09;;;;;;;3.30;3.00;;;28.70;53.80;;;;;;6224711;28;20125;-77